aviador You're here:

OMDW Decoded Metar

in
Report Time2017-09-24 22:00:00
UTC Time2017-09-24 23:02:50
Flight Rules vfr VFR
Wind090° at 02 kt
W.Decomp.*RWY 12: 1.7 kt HW 1 kt LCW
W.Rank090° ranks 12
Current wind is below 090° avg. (5.7)
Visibility9999 m
Phenomena:N/A
Clouds:N/A
Expected CloudBase > 4,000 ft AGL from Temp-Dew spread
CeilingNone
Temp24°C
Dew Point14°C (54% RH)
QNH1008 hPa
Raw Report
METAR OMDW 242200Z 09002KT CAVOK 24/14 Q1008 NOSIG=

Extra information for OMDW:More info

Social comments